KTOR/TOR METAR and TAF weather

Enter ICAO airport designator
Station Type Date Time Source
KTOR METAR 2020/07/07 08:53 UTC NOAA

KTOR 070853Z AUTO 01005KT 10SM CLR 18/11 A2994 RMK AO2 SLP081 T01830111 56004


Station Type Date Time Source
KTOR Decoded METAR 2020/07/07 08:53 UTC NOAA

TORRINGTON MUNICIPAL AIRPORT, WY, United States (KTOR) 42-03N 104-09W 1277M
Jul 07, 2020 - 04:53 AM EDT / 2020.07.07 0853 UTC
Wind: from the N (010 degrees) at 6 MPH (5 KT):0
Visibility: 10 mile(s):0
Sky conditions: clear
Temperature: 64.9 F (18.3 C)
Dew Point: 52.0 F (11.1 C)
Relative Humidity: 62%
Pressure (altimeter): 29.94 in. Hg (1013 hPa)
Pressure tendency: 0.01 inches (0.4 hPa) lower than three hours ago
ob: KTOR 070853Z AUTO 01005KT 10SM CLR 18/11 A2994 RMK AO2 SLP081 T01830111 56004
cycle: 9

Station Type Date Time Source
KTOR TAF UTC NOAA

Error!

Example: see airport list